createdAt,value
2022-09-15T00:01:10.894Z,2.30
2022-09-15T00:03:44.624Z,2.83
2022-09-15T00:06:12.416Z,2.90
2022-09-15T00:08:39.767Z,3.00
2022-09-15T00:11:23.185Z,3.00
2022-09-15T00:13:54.623Z,2.90
2022-09-15T00:16:23.897Z,2.65
2022-09-15T00:18:51.092Z,2.63
2022-09-15T00:21:21.666Z,2.70
2022-09-15T00:23:49.419Z,2.40
2022-09-15T00:26:22.810Z,2.60
2022-09-15T00:28:50.356Z,2.60
2022-09-15T00:31:20.479Z,3.55
2022-09-15T00:33:48.975Z,2.50
2022-09-15T00:36:16.880Z,2.08
2022-09-15T00:38:44.949Z,1.92
2022-09-15T00:41:33.614Z,2.35
2022-09-15T00:44:36.926Z,2.05
2022-09-15T00:47:18.815Z,2.20
2022-09-15T00:49:51.014Z,2.10
2022-09-15T00:52:24.002Z,2.00
2022-09-15T00:55:06.189Z,2.00
2022-09-15T00:57:35.822Z,2.45
2022-09-15T01:00:08.587Z,2.38
2022-09-15T01:02:37.374Z,2.33
2022-09-15T01:05:11.672Z,2.15
2022-09-15T01:07:53.767Z,2.22
2022-09-15T01:10:33.504Z,2.40
2022-09-15T01:13:03.989Z,1.80
2022-09-15T01:16:03.151Z,1.95
2022-09-15T01:22:12.780Z,1.98
2022-09-15T01:24:45.000Z,1.88
2022-09-15T01:27:43.253Z,2.13
2022-09-15T01:30:12.700Z,2.00
2022-09-15T01:33:06.925Z,2.33
2022-09-15T01:35:40.559Z,2.20
2022-09-15T01:38:38.625Z,1.73
2022-09-15T01:41:08.394Z,1.95
2022-09-15T01:43:42.863Z,2.00
2022-09-15T01:46:17.297Z,1.65
2022-09-15T01:48:49.512Z,1.90
2022-09-15T01:51:16.899Z,1.80
2022-09-15T01:53:46.156Z,2.20
2022-09-15T01:56:13.535Z,2.13
2022-09-15T01:58:41.598Z,2.05
2022-09-15T02:01:14.576Z,1.85
2022-09-15T02:03:48.916Z,1.90
2022-09-15T02:06:27.621Z,1.90
2022-09-15T02:09:01.469Z,2.30
2022-09-15T02:11:30.546Z,1.92
2022-09-15T02:14:18.502Z,2.17
2022-09-15T02:16:50.084Z,1.92
2022-09-15T02:19:22.312Z,2.15
2022-09-15T02:21:54.036Z,2.25
2022-09-15T02:24:28.895Z,2.08
2022-09-15T02:26:56.582Z,1.87
2022-09-15T02:29:28.437Z,1.70
2022-09-15T02:32:06.785Z,2.08
2022-09-15T02:34:43.897Z,1.77
2022-09-15T02:37:11.889Z,1.88
2022-09-15T02:39:44.367Z,1.55
2022-09-15T02:42:24.589Z,1.67
2022-09-15T02:44:52.590Z,1.60
2022-09-15T02:47:19.536Z,1.60
2022-09-15T02:49:46.659Z,1.30
2022-09-15T02:52:14.152Z,1.42
2022-09-15T02:54:48.918Z,1.55
2022-09-15T02:57:16.564Z,1.60
2022-09-15T03:00:20.538Z,1.20
2022-09-15T03:02:52.026Z,1.55
2022-09-15T03:05:21.771Z,1.45
2022-09-15T03:07:49.215Z,1.40
2022-09-15T03:10:16.428Z,1.55
2022-09-15T03:12:51.581Z,2.15
2022-09-15T03:15:23.268Z,1.63
2022-09-15T03:17:53.352Z,1.45
2022-09-15T03:20:23.683Z,1.58
2022-09-15T03:22:53.198Z,1.60
2022-09-15T03:25:21.216Z,1.85
2022-09-15T03:27:48.351Z,1.75
2022-09-15T03:30:15.848Z,1.60
2022-09-15T03:32:47.448Z,1.98
2022-09-15T03:35:14.608Z,1.70
2022-09-15T03:37:41.654Z,1.88
2022-09-15T03:40:10.833Z,2.03
2022-09-15T03:42:41.427Z,1.77
2022-09-15T03:45:08.707Z,2.20
2022-09-15T03:47:35.619Z,1.90
2022-09-15T03:50:02.865Z,1.48
2022-09-15T03:52:32.812Z,2.08
2022-09-15T03:55:00.677Z,2.00
2022-09-15T03:57:27.858Z,1.92
2022-09-15T03:59:54.784Z,1.90
2022-09-15T04:02:21.785Z,1.80
2022-09-15T04:04:49.548Z,2.20
2022-09-15T04:07:16.632Z,2.00
2022-09-15T04:09:43.791Z,1.85
2022-09-15T04:12:11.053Z,1.90
2022-09-15T04:14:38.115Z,1.95
2022-09-15T04:17:07.347Z,1.75
2022-09-15T04:19:37.233Z,1.50
2022-09-15T04:22:04.288Z,1.83
2022-09-15T04:24:33.381Z,1.88
2022-09-15T04:27:00.635Z,1.67
2022-09-15T04:29:27.628Z,1.90
2022-09-15T04:31:54.646Z,1.80
2022-09-15T04:34:21.817Z,1.77
2022-09-15T04:36:48.770Z,1.48
2022-09-15T04:39:15.796Z,1.63
2022-09-15T04:41:43.099Z,1.33
2022-09-15T04:44:10.143Z,1.65
2022-09-15T04:46:37.634Z,1.70
2022-09-15T04:49:05.046Z,1.77
2022-09-15T04:51:32.033Z,1.92
2022-09-15T04:53:59.183Z,1.75
2022-09-15T04:56:27.469Z,2.05
2022-09-15T04:59:02.500Z,1.98
2022-09-15T05:01:36.150Z,1.70
2022-09-15T05:04:04.398Z,1.75
2022-09-15T05:06:31.947Z,1.75
2022-09-15T05:09:04.457Z,1.58
2022-09-15T05:11:39.473Z,1.67
2022-09-15T05:14:08.122Z,1.40
2022-09-15T05:16:35.752Z,1.90
2022-09-15T05:19:04.606Z,1.98
2022-09-15T05:21:32.195Z,1.40
2022-09-15T05:23:59.299Z,1.80
2022-09-15T05:26:28.450Z,1.92
2022-09-15T05:28:57.171Z,1.40
2022-09-15T05:31:27.285Z,1.50
2022-09-15T05:33:54.896Z,1.45
2022-09-15T05:36:25.676Z,1.65
2022-09-15T05:38:54.102Z,1.90
2022-09-15T05:41:21.680Z,1.30
2022-09-15T05:43:50.828Z,1.58
2022-09-15T05:46:21.561Z,1.35
2022-09-15T05:48:48.713Z,1.33
2022-09-15T05:51:16.041Z,1.27
2022-09-15T05:53:43.086Z,1.13
2022-09-15T05:56:12.608Z,1.67
2022-09-15T05:58:41.512Z,1.40
2022-09-15T06:01:13.454Z,1.17
2022-09-15T06:03:41.061Z,1.40
2022-09-15T06:06:08.227Z,1.35
2022-09-15T06:08:39.684Z,1.27
2022-09-15T06:11:12.358Z,1.60
2022-09-15T06:13:40.359Z,1.60
2022-09-15T06:16:12.418Z,1.35
2022-09-15T06:18:42.267Z,1.30
2022-09-15T06:21:13.212Z,1.80
2022-09-15T06:23:50.068Z,1.40
2022-09-15T06:26:19.614Z,1.48
2022-09-15T06:28:55.706Z,1.30
2022-09-15T06:31:24.176Z,1.13
2022-09-15T06:33:53.424Z,1.65
2022-09-15T06:36:22.989Z,1.30
2022-09-15T06:38:52.895Z,1.42
2022-09-15T06:41:58.440Z,1.30
2022-09-15T06:44:20.659Z,1.52
2022-09-15T06:46:48.898Z,1.40
2022-09-15T06:49:16.293Z,1.45
2022-09-15T06:51:43.252Z,1.58
2022-09-15T06:54:10.774Z,1.85
2022-09-15T06:56:40.938Z,1.50
2022-09-15T06:59:08.201Z,1.60
2022-09-15T07:01:41.085Z,0.93
2022-09-15T07:04:10.636Z,1.10
2022-09-15T07:06:39.502Z,1.20
2022-09-15T07:09:06.986Z,1.20
2022-09-15T07:11:34.312Z,1.02
2022-09-15T07:14:04.234Z,1.38
2022-09-15T07:16:31.409Z,1.50
2022-09-15T07:19:01.348Z,1.10
2022-09-15T07:21:28.833Z,1.08
2022-09-15T07:24:02.514Z,1.33
2022-09-15T07:26:32.399Z,1.55
2022-09-15T07:29:02.646Z,1.48
2022-09-15T07:31:35.399Z,1.30
2022-09-15T07:34:03.583Z,1.33
2022-09-15T07:36:31.308Z,1.40
2022-09-15T07:38:58.746Z,1.40
2022-09-15T07:41:28.947Z,1.30
2022-09-15T07:43:58.452Z,1.35
2022-09-15T07:46:29.249Z,1.40
2022-09-15T07:48:59.031Z,1.40
2022-09-15T07:51:26.366Z,1.33
2022-09-15T07:53:54.963Z,1.27
2022-09-15T07:56:24.591Z,1.40
2022-09-15T07:58:51.824Z,1.48
2022-09-15T08:01:22.498Z,1.35
2022-09-15T08:03:52.204Z,1.30
2022-09-15T08:06:24.764Z,1.27
2022-09-15T08:08:56.299Z,1.65
2022-09-15T08:13:56.388Z,1.35
2022-09-15T08:16:24.629Z,1.38
2022-09-15T08:18:53.820Z,1.15
2022-09-15T08:21:22.303Z,1.40
2022-09-15T08:23:56.156Z,1.70
2022-09-15T08:26:24.533Z,1.77
2022-09-15T08:28:54.140Z,1.25
2022-09-15T08:31:21.452Z,2.17
2022-09-15T08:33:53.260Z,1.90
2022-09-15T08:36:20.718Z,1.65
2022-09-15T08:38:48.315Z,1.50
2022-09-15T08:41:53.099Z,1.30
2022-09-15T08:44:32.058Z,1.20
2022-09-15T08:47:05.983Z,1.80
2022-09-15T08:49:51.905Z,1.42
2022-09-15T08:52:35.341Z,1.65
2022-09-15T08:55:12.069Z,1.38
2022-09-15T08:57:41.547Z,1.25
2022-09-15T09:00:16.102Z,1.33
2022-09-15T09:02:55.083Z,1.30
2022-09-15T09:06:06.947Z,1.63
2022-09-15T09:08:56.218Z,1.42
2022-09-15T09:11:32.271Z,1.73
2022-09-15T09:14:20.714Z,1.20
2022-09-15T09:17:01.580Z,1.30
2022-09-15T09:19:34.978Z,1.30
2022-09-15T09:22:18.002Z,1.10
2022-09-15T09:24:51.935Z,1.35
2022-09-15T09:27:33.798Z,1.10
2022-09-15T09:30:14.401Z,1.00
2022-09-15T09:32:53.490Z,1.08
2022-09-15T09:35:23.656Z,1.27
2022-09-15T09:37:52.358Z,1.17
2022-09-15T09:40:20.583Z,1.35
2022-09-15T09:42:48.050Z,1.23
2022-09-15T09:45:17.247Z,1.35
2022-09-15T09:47:46.501Z,1.05
2022-09-15T09:50:42.915Z,1.00
2022-09-15T09:53:33.705Z,1.05
2022-09-15T09:56:19.897Z,1.00
2022-09-15T09:58:46.954Z,0.90
2022-09-15T10:01:25.767Z,0.82
2022-09-15T10:04:22.750Z,0.98
2022-09-15T10:06:50.057Z,1.15
2022-09-15T10:09:19.848Z,1.10
2022-09-15T10:11:53.864Z,1.30
2022-09-15T10:14:36.947Z,0.90
2022-09-15T10:17:16.706Z,1.00
2022-09-15T10:19:50.371Z,1.38
2022-09-15T10:22:24.684Z,1.20
2022-09-15T10:24:51.866Z,1.33
2022-09-15T10:27:34.713Z,1.10
2022-09-15T10:30:13.861Z,1.55
2022-09-15T10:32:43.269Z,1.10
2022-09-15T10:35:18.286Z,1.45
2022-09-15T10:38:15.953Z,1.10
2022-09-15T10:40:49.032Z,1.10
2022-09-15T10:43:25.145Z,1.35
2022-09-15T10:46:24.079Z,1.15
2022-09-15T10:48:53.924Z,1.15
2022-09-15T10:51:29.363Z,1.30
2022-09-15T10:56:56.292Z,0.80
2022-09-15T10:59:26.150Z,0.77
2022-09-15T11:02:09.467Z,1.05
2022-09-15T11:04:42.827Z,1.13
2022-09-15T11:07:31.317Z,1.00
2022-09-15T11:10:20.327Z,0.73
2022-09-15T11:12:56.390Z,1.10
2022-09-15T11:15:54.754Z,1.20
2022-09-15T11:18:41.141Z,0.95
2022-09-15T11:21:43.027Z,0.75
2022-09-15T11:24:38.362Z,0.90
2022-09-15T11:27:08.352Z,0.90
2022-09-15T11:29:48.004Z,0.80
2022-09-15T11:32:25.750Z,0.93
2022-09-15T11:35:16.696Z,0.60
2022-09-15T11:37:48.431Z,0.70
2022-09-15T11:40:29.132Z,0.55
2022-09-15T11:43:05.125Z,0.70
2022-09-15T11:45:43.573Z,0.50
2022-09-15T11:48:18.678Z,0.80
2022-09-15T11:50:49.184Z,1.00
2022-09-15T11:53:26.759Z,0.90
2022-09-15T11:56:02.053Z,1.02
2022-09-15T11:58:36.321Z,0.90
2022-09-15T12:01:10.793Z,0.88
2022-09-15T12:03:58.096Z,1.00
2022-09-15T12:06:37.276Z,2.85
2022-09-15T12:09:07.083Z,0.98
2022-09-15T12:11:43.205Z,9.32
2022-09-15T12:14:18.974Z,1.55
2022-09-15T12:16:46.638Z,1.05
2022-09-15T12:19:33.544Z,0.90
2022-09-15T12:22:17.836Z,0.95
2022-09-15T12:25:00.729Z,1.20
2022-09-15T12:27:28.974Z,0.88
2022-09-15T12:29:57.884Z,1.00
2022-09-15T12:32:29.385Z,0.90
2022-09-15T12:35:02.645Z,0.98
2022-09-15T12:37:54.036Z,0.82
2022-09-15T12:40:24.499Z,0.90
2022-09-15T12:42:54.317Z,0.98
2022-09-15T12:45:35.967Z,1.08
2022-09-15T12:48:23.896Z,0.90
2022-09-15T12:50:58.659Z,1.10
2022-09-15T12:53:32.300Z,0.93
2022-09-15T12:56:01.125Z,1.00
2022-09-15T12:58:39.258Z,1.08
2022-09-15T13:01:18.968Z,0.90
2022-09-15T13:03:46.665Z,1.42
2022-09-15T13:06:16.654Z,1.02
2022-09-15T13:09:02.087Z,1.15
2022-09-15T13:11:38.363Z,1.40
2022-09-15T13:14:08.830Z,0.82
2022-09-15T13:16:48.794Z,0.90
2022-09-15T13:19:41.279Z,1.00
2022-09-15T13:22:11.697Z,0.80
2022-09-15T13:25:03.804Z,1.00
2022-09-15T13:27:38.526Z,1.15
2022-09-15T13:30:20.809Z,1.00
2022-09-15T13:32:57.121Z,1.20
2022-09-15T13:35:52.777Z,8.68
2022-09-15T13:38:41.321Z,53.45
2022-09-15T13:41:34.879Z,42.08
2022-09-15T13:44:08.064Z,2.80
2022-09-15T13:46:38.236Z,1.65
2022-09-15T13:49:23.349Z,1.30
2022-09-15T13:52:19.481Z,1.20
2022-09-15T13:55:14.566Z,0.95
2022-09-15T14:00:38.145Z,0.98
2022-09-15T14:03:18.597Z,0.93
2022-09-15T14:05:46.234Z,1.05
2022-09-15T14:08:23.984Z,1.15
2022-09-15T14:10:59.816Z,1.45
2022-09-15T14:13:29.047Z,1.33
2022-09-15T14:16:43.312Z,1.33
2022-09-15T14:19:38.806Z,1.00
2022-09-15T14:22:26.170Z,0.97
2022-09-15T14:24:54.163Z,0.93
2022-09-15T14:27:25.113Z,1.00
2022-09-15T14:30:00.265Z,1.27
2022-09-15T14:34:59.789Z,0.98
2022-09-15T14:37:29.439Z,1.50
2022-09-15T14:40:00.620Z,0.88
2022-09-15T14:42:32.783Z,1.25
2022-09-15T14:48:00.557Z,1.05
2022-09-15T14:50:32.905Z,1.02
2022-09-15T14:53:17.917Z,1.00
2022-09-15T14:56:16.893Z,0.90
2022-09-15T14:58:52.752Z,1.08
2022-09-15T15:01:34.950Z,1.05
2022-09-15T15:04:20.462Z,0.85
2022-09-15T15:07:00.767Z,1.00
2022-09-15T15:09:33.706Z,0.88
2022-09-15T15:12:05.260Z,1.20
2022-09-15T15:14:33.985Z,1.15
2022-09-15T15:17:06.362Z,1.30
2022-09-15T15:19:42.176Z,1.35
2022-09-15T15:22:12.268Z,1.30
2022-09-15T15:24:49.660Z,1.25
2022-09-15T15:27:35.111Z,1.20
2022-09-15T15:32:50.968Z,1.35
2022-09-15T15:35:22.693Z,1.13
2022-09-15T15:37:59.679Z,1.00
2022-09-15T15:40:29.681Z,1.40
2022-09-15T15:43:02.683Z,1.33
2022-09-15T15:45:48.387Z,1.98
2022-09-15T15:48:16.009Z,2.35
2022-09-15T15:50:43.175Z,1.77
2022-09-15T15:53:10.068Z,1.20
2022-09-15T15:55:40.094Z,1.20
2022-09-15T15:58:08.713Z,1.27
2022-09-15T16:00:56.880Z,1.20
2022-09-15T16:03:25.705Z,1.20
2022-09-15T16:05:56.851Z,1.08
2022-09-15T16:08:31.236Z,1.02
2022-09-15T16:11:01.599Z,1.00
2022-09-15T16:13:29.390Z,1.10
2022-09-15T16:16:00.237Z,1.05
2022-09-15T16:18:32.646Z,1.05
2022-09-15T16:20:59.657Z,0.90
2022-09-15T16:23:26.581Z,0.85
2022-09-15T16:25:59.537Z,0.95
2022-09-15T16:28:28.980Z,1.08
2022-09-15T16:30:57.154Z,1.10
2022-09-15T16:33:25.469Z,1.10
2022-09-15T16:36:04.006Z,0.90
2022-09-15T16:38:31.191Z,1.10
2022-09-15T16:40:58.188Z,1.08
2022-09-15T16:43:25.604Z,1.33
2022-09-15T16:45:55.278Z,1.48
2022-09-15T16:48:22.559Z,1.50
2022-09-15T16:51:16.797Z,1.42
2022-09-15T16:53:39.665Z,0.98
2022-09-15T16:56:12.616Z,0.90
2022-09-15T16:58:41.560Z,0.80
2022-09-15T17:01:17.773Z,1.10
2022-09-15T17:03:48.283Z,1.08
2022-09-15T17:06:17.739Z,1.25
2022-09-15T17:08:45.313Z,1.30
2022-09-15T17:11:18.629Z,1.10
2022-09-15T17:13:47.538Z,1.33
2022-09-15T17:16:17.656Z,0.90
2022-09-15T17:18:45.235Z,0.77
2022-09-15T17:21:13.753Z,0.85
2022-09-15T17:23:46.023Z,1.27
2022-09-15T17:26:18.567Z,1.27
2022-09-15T17:28:46.134Z,1.38
2022-09-15T17:31:17.635Z,2.10
2022-09-15T17:33:48.556Z,1.50
2022-09-15T17:36:16.695Z,1.85
2022-09-15T17:38:45.411Z,1.90
2022-09-15T17:41:15.335Z,1.42
2022-09-15T17:43:42.771Z,1.40
2022-09-15T17:46:09.809Z,2.33
2022-09-15T17:48:39.154Z,2.30
2022-09-15T17:51:07.521Z,2.95
2022-09-15T17:53:34.585Z,3.25
2022-09-15T17:56:02.101Z,4.45
2022-09-15T17:58:31.529Z,3.53
2022-09-15T18:00:59.762Z,3.05
2022-09-15T18:03:30.879Z,2.95
2022-09-15T18:06:00.189Z,2.78
2022-09-15T18:08:28.012Z,2.38
2022-09-15T18:10:56.069Z,2.10
2022-09-15T18:13:27.579Z,1.83
2022-09-15T18:15:55.435Z,1.60
2022-09-15T18:18:25.723Z,1.50
2022-09-15T18:20:58.321Z,1.67
2022-09-15T18:23:29.922Z,1.75
2022-09-15T18:25:57.901Z,1.65
2022-09-15T18:28:25.364Z,1.50
2022-09-15T18:30:52.874Z,1.45
2022-09-15T18:33:25.000Z,1.50
2022-09-15T18:35:55.890Z,1.55
2022-09-15T18:38:23.908Z,2.20
2022-09-15T18:40:53.839Z,2.10
2022-09-15T18:43:26.619Z,2.25
2022-09-15T18:45:59.683Z,1.75
2022-09-15T18:48:27.724Z,1.98
2022-09-15T18:50:55.164Z,2.05
2022-09-15T18:53:23.018Z,1.90
2022-09-15T18:55:50.471Z,1.60
2022-09-15T18:58:19.560Z,1.60
2022-09-15T19:00:47.133Z,1.40
2022-09-15T19:03:14.558Z,1.90
2022-09-15T19:05:42.280Z,2.45
2022-09-15T19:08:13.181Z,1.55
2022-09-15T19:10:44.125Z,1.60
2022-09-15T19:13:14.185Z,1.20
2022-09-15T19:15:43.893Z,1.35
2022-09-15T19:18:11.636Z,1.42
2022-09-15T19:20:40.492Z,1.35
2022-09-15T19:23:10.935Z,1.48
2022-09-15T19:25:43.118Z,1.50
2022-09-15T19:28:11.032Z,1.50
2022-09-15T19:30:40.682Z,1.60
2022-09-15T19:33:08.212Z,1.58
2022-09-15T19:35:35.821Z,1.38
2022-09-15T19:38:05.555Z,1.65
2022-09-15T19:40:32.806Z,1.60
2022-09-15T19:43:02.771Z,3.92
2022-09-15T19:45:32.393Z,3.65
2022-09-15T19:47:59.662Z,3.20
2022-09-15T19:50:27.035Z,2.28
2022-09-15T19:52:57.565Z,2.38
2022-09-15T19:55:28.853Z,2.67
2022-09-15T19:57:55.933Z,2.33
2022-09-15T20:00:22.862Z,2.35
2022-09-15T20:02:50.385Z,2.17
2022-09-15T20:08:02.172Z,1.60
2022-09-15T20:10:29.115Z,1.70
2022-09-15T20:12:55.991Z,1.40
2022-09-15T20:15:23.147Z,1.30
2022-09-15T20:17:50.096Z,1.50
2022-09-15T20:20:18.162Z,1.27
2022-09-15T20:22:45.269Z,1.33
2022-09-15T20:25:14.713Z,1.25
2022-09-15T20:27:43.309Z,1.23
2022-09-15T20:30:23.352Z,1.17
2022-09-15T20:32:50.328Z,1.20
2022-09-15T20:35:17.606Z,1.20
2022-09-15T20:37:49.632Z,1.30
2022-09-15T20:40:17.692Z,1.20
2022-09-15T20:42:44.975Z,1.33
2022-09-15T20:45:12.123Z,0.82
2022-09-15T20:47:41.735Z,1.10
2022-09-15T20:50:09.231Z,1.00
2022-09-15T20:52:38.775Z,1.08
2022-09-15T20:55:06.096Z,1.20
2022-09-15T20:57:33.245Z,1.30
2022-09-15T21:00:00.187Z,1.10
2022-09-15T21:02:29.758Z,1.60
2022-09-15T21:04:57.085Z,1.45
2022-09-15T21:07:24.099Z,1.10
2022-09-15T21:09:51.166Z,1.73
2022-09-15T21:12:21.176Z,1.80
2022-09-15T21:14:48.232Z,2.08
2022-09-15T21:17:16.642Z,2.17
2022-09-15T21:19:43.889Z,2.03
2022-09-15T21:22:11.023Z,3.47
2022-09-15T21:24:38.078Z,4.03
2022-09-15T21:27:23.750Z,4.50
2022-09-15T21:29:50.717Z,4.18
2022-09-15T21:32:18.481Z,4.40
2022-09-15T21:34:47.335Z,4.88
2022-09-15T21:37:15.006Z,4.97
2022-09-15T21:39:42.357Z,4.82
2022-09-15T21:42:10.749Z,4.90
2022-09-15T21:44:37.650Z,5.55
2022-09-15T21:47:07.162Z,4.32
2022-09-15T21:49:34.225Z,4.13
2022-09-15T21:52:01.179Z,3.65
2022-09-15T21:54:28.349Z,3.20
2022-09-15T21:56:55.508Z,3.50
2022-09-15T21:59:22.527Z,3.25
2022-09-15T22:01:49.910Z,3.38
2022-09-15T22:04:16.924Z,3.88
2022-09-15T22:06:45.108Z,4.25
2022-09-15T22:09:17.823Z,4.20
2022-09-15T22:11:44.841Z,4.15
2022-09-15T22:14:13.170Z,4.50
2022-09-15T22:16:42.532Z,4.70
2022-09-15T22:19:11.704Z,5.32
2022-09-15T22:21:42.028Z,5.30
2022-09-15T22:24:13.421Z,5.57
2022-09-15T22:26:43.788Z,5.57
2022-09-15T22:29:14.334Z,5.60
2022-09-15T22:31:42.232Z,5.90
2022-09-15T22:34:09.712Z,6.38
2022-09-15T22:36:36.870Z,6.07
2022-09-15T22:39:05.649Z,6.60
2022-09-15T22:41:39.167Z,6.82
2022-09-15T22:44:07.662Z,7.10
2022-09-15T22:46:35.123Z,7.22
2022-09-15T22:49:02.185Z,6.90
2022-09-15T22:51:29.664Z,6.93
2022-09-15T22:53:57.270Z,7.80
2022-09-15T22:56:28.669Z,6.35
2022-09-15T22:58:58.383Z,6.40
2022-09-15T23:01:28.239Z,7.05
2022-09-15T23:03:57.529Z,6.60
2022-09-15T23:06:27.744Z,6.85
2022-09-15T23:08:58.489Z,6.93
2022-09-15T23:11:27.789Z,7.15
2022-09-15T23:13:55.881Z,6.45
2022-09-15T23:16:24.406Z,6.57
2022-09-15T23:18:53.540Z,6.47
2022-09-15T23:21:23.439Z,6.57
2022-09-15T23:23:53.489Z,7.13
2022-09-15T23:26:22.679Z,6.43
2022-09-15T23:28:49.978Z,5.43
2022-09-15T23:31:17.376Z,5.70
2022-09-15T23:33:44.894Z,6.07
2022-09-15T23:36:15.175Z,5.72
2022-09-15T23:38:45.037Z,6.00
2022-09-15T23:41:14.116Z,5.35
2022-09-15T23:43:43.495Z,5.63
2022-09-15T23:46:10.832Z,5.97
2022-09-15T23:48:38.427Z,5.65
2022-09-15T23:51:05.891Z,5.45
2022-09-15T23:53:33.567Z,6.22
2022-09-15T23:56:00.916Z,5.88
2022-09-15T23:58:27.918Z,5.82
